仙台空港の過去48時間の天気

仙台空港 (Sendai)

現在時刻: 1/23 15:00 JST (1/23 06:00 UTC) 以下の時間は現地時間です。

過去48時間のMETAR気象情報
時間 風向 風速(m/s) 視程 気温(℃) 湿度(%) 気圧(hPa) 天気現象
23 14:07 南西 8 10km以上 4 81 999 弱いしゅう雨 弱いしゅう雪
23 14:00 西南西 5 10km以上 4 81 999 弱いしゅう雨 弱いしゅう雪
23 13:00 西南西 4 10km以上 4 75 1000 周辺でしゅう雨
23 12:00 西南西 3 10km以上 2 87 1000
23 11:00 南西 4 10km以上 2 81 1002
23 10:00 南西 5 10km以上 1 93 1003
23 09:00 南西 3 10km以上 -1 100 1004
23 08:32 不定 1 5,000m -2 100 1005 部分霧 もや
23 08:18 不定 1 1,200m -3 100 1005 散在した霧 もや
23 08:00 不定 1 900m -4 100 1005 氷霧
23 07:47 南南西 1 500m -5 100 1005 氷霧
23 07:38 不定 1 700m -4 100 1005 氷霧
23 07:00 不定 1 500m -5 100 1005 氷霧
23 06:44 不定 1 700m -3 100 1005 氷霧
23 06:00 不定 1 10km以上 -2 100 1005 弱い雪
23 05:30 不定 1 10km以上 -1 100 1005 弱い雪
22 21:00 北北西 4 1,200m -2 100 1014 弱い雪 もや
22 20:24 6 1,000m -2 100 1014 弱い雪 もや
22 20:00 5 1,500m -2 100 1015 弱い雪 もや
22 19:39 4 1,200m -2 100 1015 弱い雪 もや
22 19:00 北北西 3 1,000m -2 100 1016 弱い雪 もや
22 18:00 西北西 4 1,200m -2 100 1017 弱い雪 もや
22 17:31 西 3 1,500m -2 100 1017 弱い雪 もや
22 17:00 西南西 3 2,000m -2 93 1018 弱い雪 もや
22 16:47 南西 2 2,000m -2 86 1018 弱い雪 もや
22 16:28 西南西 2 3,000m 0 55 1018 弱い雪
22 16:16 南西 3 4,500m 0 47 1018 弱い雪
22 16:00 西 2 10km以上 0 43 1018
22 15:00 不定 1 10km以上 0 40 1018
22 14:00 北西 3 10km以上 1 40 1019
22 13:00 北西 4 10km以上 0 40 1019
22 12:00 北北東 4 10km以上 0 43 1021
22 11:00 北北東 3 10km以上 0 43 1023
22 10:00 北北東 3 10km以上 0 47 1024
22 09:00 北東 5 10km以上 0 51 1024
22 08:00 北北東 3 10km以上 -1 55 1024
22 07:00 北北西 4 10km以上 -1 55 1023
22 06:00 4 10km以上 -1 55 1022
22 05:30 東北東 4 10km以上 -1 55 1021
RJSS 230507Z 23015G25KT 9999 -SHRASN FEW010 SCT030 BKN050 04/01 Q0999 RMK 1ST010 3CU030 5CU050 A2951
RJSS 230500Z 24009KT 9999 -SHRASN FEW010 SCT030 BKN050 04/01 Q0999
RJSS 230400Z 25007KT 220V280 9999 VCSH FEW015 SCT040 BKN100 04/00 Q1000
RJSS 230300Z 24006KT 180V270 9999 FEW015 SCT080 BKN100 02/M00 Q1000
RJSS 230200Z 23007KT 9999 FEW010 SCT100 BKN150 02/M01 Q1002
RJSS 230100Z 23009KT 9999 FEW010 SCT130 BKN/// 01/00 Q1003
RJSS 230000Z 22006KT 9999 FEW003 BKN130 M01/M01 Q1004
RJSS 222332Z VRB02KT 5000 R27/P2000N PRFG BR FEW001 BKN050 M02/M02 Q1005 RMK 1ST001 5SC050 A2968 1200NE
RJSS 222318Z VRB01KT 1200 R27/1500VP2000U BCFG BR FEW001 BKN050 M03/M03 Q1005 RMK 1ST001 5SC050 A2968
RJSS 222300Z VRB01KT 0900 R27/1100VP2000D FZFG FEW001 SCT050 M04/M04 Q1005
RJSS 222247Z 20002KT 0500 R27/0400V1700D FZFG FEW001 SCT050 M05/M05 Q1005 RMK 2ST001 3SC050 A2969
RJSS 222238Z VRB01KT 0700 R27/0400VP2000U FZFG FEW001 SCT050 M04/M04 Q1005 RMK 2ST001 3SC050 A2969
RJSS 222200Z VRB01KT 0500 R27/0175V0300N FZFG FEW001 SCT050 M05/M05 Q1005
RJSS 222144Z VRB01KT 0700 R27/0400V0900N FZFG FEW001 SCT050 M03/M03 Q1005 RMK 1ST001 4SC050 A2969 9999SW-NW
RJSS 222100Z VRB01KT 9999 -SN FEW010 SCT030 BKN050 M02/M02 Q1005
RJSS 222030Z VRB01KT 9999 -SN FEW010 BKN030 M01/M01 Q1005 RMK 1ST010 7SC030 A2970
RJSS 221200Z 34008KT 1200 R27/P2000N -SN BR FEW003 BKN007 BKN010 M02/M02 Q1014
RJSS 221124Z 35011KT 1000 R27/P2000N -SN BR FEW003 BKN007 BKN010 M02/M02 Q1014 RMK 1ST003 5ST007 7ST010 A2996
RJSS 221100Z 35010KT 1500 R27/P2000N -SN BR FEW003 BKN008 BKN012 M02/M02 Q1015
RJSS 221039Z 35008KT 1200 R27/P2000N -SN BR FEW003 BKN008 BKN012 M02/M02 Q1015 RMK 1ST003 5ST008 7ST012 A2999
RJSS 221000Z 34006KT 1000 R27/P2000N -SN BR FEW003 BKN007 BKN010 M02/M02 Q1016
RJSS 220900Z 29007KT 1200 R27/P2000N -SN BR FEW003 BKN008 BKN012 M02/M02 Q1017
RJSS 220831Z 28005KT 1500 R27/P2000N -SN BR FEW005 BKN012 BKN020 M02/M02 Q1017 RMK 1ST005 5ST012 7SC020 A3006
RJSS 220800Z 25005KT 2000 -SN BR FEW008 BKN015 BKN030 M02/M03 Q1018
RJSS 220747Z 23003KT 180V260 2000 -SN BR FEW008 BKN015 BKN030 M02/M04 Q1018 RMK 1ST008 5SC015 7SC030 A3007
RJSS 220728Z 24004KT 180V290 3000 -SN FEW008 SCT020 BKN030 M00/M08 Q1018 RMK 1ST008 4SC020 7SC030 A3007
RJSS 220716Z 22005KT 120V260 4500 -SN FEW010 SCT030 BKN040 M00/M10 Q1018 RMK 1ST010 3SC030 7SC040 A3007
RJSS 220700Z 26003KT 9999 FEW010 SCT040 BKN050 00/M11 Q1018
RJSS 220600Z VRB01KT 9999 FEW020 BKN080 BKN100 00/M12 Q1018
RJSS 220500Z 32005KT 290V360 9999 FEW030 SCT080 BKN100 01/M11 Q1019
RJSS 220400Z 32007KT 9999 FEW030 BKN100 BKN/// 00/M12 Q1019
RJSS 220300Z 02007KT 9999 FEW030 SCT080 BKN120 00/M11 Q1021
RJSS 220200Z 02006KT 9999 FEW020 SCT090 BKN120 00/M11 Q1023
RJSS 220100Z 02005KT 9999 FEW020 SCT120 BKN/// 00/M10 Q1024
RJSS 220000Z 04009KT 9999 FEW020 BKN140 BKN/// M00/M09 Q1024
RJSS 212300Z 03005KT 9999 FEW020 BKN160 BKN/// M01/M09 Q1024
RJSS 212200Z 33007KT 9999 FEW020 SCT170 BKN/// M01/M09 Q1023
RJSS 212100Z 36008KT 340V040 9999 FEW050 BKN/// M01/M09 Q1022
RJSS 212030Z 06007KT 9999 FEW040 BKN/// M01/M09 Q1021 RMK 1SC040 A3016